sensor_id;sensor_type;location;lat;lon;timestamp;temperature;humidity
36372;DHT22;22398;51.346;12.372;2023-06-26T00:04:16;21.30;81.50
36372;DHT22;22398;51.346;12.372;2023-06-26T00:09:19;21.20;81.70
36372;DHT22;22398;51.346;12.372;2023-06-26T00:14:23;21.20;81.90
36372;DHT22;22398;51.346;12.372;2023-06-26T00:19:27;21.10;82.20
36372;DHT22;22398;51.346;12.372;2023-06-26T00:24:30;21.00;82.70
36372;DHT22;22398;51.346;12.372;2023-06-26T00:29:35;20.90;83.10
36372;DHT22;22398;51.346;12.372;2023-06-26T00:34:40;20.80;83.50
36372;DHT22;22398;51.346;12.372;2023-06-26T00:39:43;20.80;84.10
36372;DHT22;22398;51.346;12.372;2023-06-26T00:44:48;20.70;84.80
36372;DHT22;22398;51.346;12.372;2023-06-26T00:49:52;20.60;85.20
36372;DHT22;22398;51.346;12.372;2023-06-26T00:54:55;20.70;85.70
36372;DHT22;22398;51.346;12.372;2023-06-26T01:00:00;20.60;86.10
36372;DHT22;22398;51.346;12.372;2023-06-26T01:05:06;20.60;86.40
36372;DHT22;22398;51.346;12.372;2023-06-26T01:10:09;20.50;87.00
36372;DHT22;22398;51.346;12.372;2023-06-26T01:15:14;20.50;87.50
36372;DHT22;22398;51.346;12.372;2023-06-26T01:20:18;20.40;87.90
36372;DHT22;22398;51.346;12.372;2023-06-26T01:25:26;20.40;88.40
36372;DHT22;22398;51.346;12.372;2023-06-26T01:30:34;20.40;89.00
36372;DHT22;22398;51.346;12.372;2023-06-26T01:35:38;20.30;89.40
36372;DHT22;22398;51.346;12.372;2023-06-26T01:40:42;20.30;90.10
36372;DHT22;22398;51.346;12.372;2023-06-26T01:45:49;20.20;90.10
36372;DHT22;22398;51.346;12.372;2023-06-26T01:50:54;20.20;90.40
36372;DHT22;22398;51.346;12.372;2023-06-26T01:56:03;20.30;90.40
36372;DHT22;22398;51.346;12.372;2023-06-26T02:01:10;20.20;90.40
36372;DHT22;22398;51.346;12.372;2023-06-26T02:06:13;20.20;90.50
36372;DHT22;22398;51.346;12.372;2023-06-26T02:11:17;20.10;90.60
36372;DHT22;22398;51.346;12.372;2023-06-26T02:16:22;20.10;90.80
36372;DHT22;22398;51.346;12.372;2023-06-26T02:21:26;19.90;90.90
36372;DHT22;22398;51.346;12.372;2023-06-26T02:26:30;19.90;91.20
36372;DHT22;22398;51.346;12.372;2023-06-26T02:31:35;19.90;91.40
36372;DHT22;22398;51.346;12.372;2023-06-26T02:36:39;19.80;91.60
36372;DHT22;22398;51.346;12.372;2023-06-26T02:41:42;19.70;91.80
36372;DHT22;22398;51.346;12.372;2023-06-26T02:46:48;19.70;92.10
36372;DHT22;22398;51.346;12.372;2023-06-26T02:51:51;19.70;92.50
36372;DHT22;22398;51.346;12.372;2023-06-26T02:56:59;19.70;92.60
36372;DHT22;22398;51.346;12.372;2023-06-26T03:02:06;19.70;93.10
36372;DHT22;22398;51.346;12.372;2023-06-26T03:07:17;19.70;93.40
36372;DHT22;22398;51.346;12.372;2023-06-26T03:12:20;19.60;93.90
36372;DHT22;22398;51.346;12.372;2023-06-26T03:17:24;19.70;94.20
36372;DHT22;22398;51.346;12.372;2023-06-26T03:22:35;19.70;94.40
36372;DHT22;22398;51.346;12.372;2023-06-26T03:27:39;19.70;94.60
36372;DHT22;22398;51.346;12.372;2023-06-26T03:32:44;19.70;94.90
36372;DHT22;22398;51.346;12.372;2023-06-26T03:37:48;19.70;95.00
36372;DHT22;22398;51.346;12.372;2023-06-26T03:42:51;19.70;95.20
36372;DHT22;22398;51.346;12.372;2023-06-26T03:47:56;19.90;95.40
36372;DHT22;22398;51.346;12.372;2023-06-26T03:53:00;19.90;95.30
36372;DHT22;22398;51.346;12.372;2023-06-26T03:58:04;20.00;95.30
36372;DHT22;22398;51.346;12.372;2023-06-26T04:03:08;20.10;95.10
36372;DHT22;22398;51.346;12.372;2023-06-26T04:08:13;20.30;95.00
36372;DHT22;22398;51.346;12.372;2023-06-26T04:13:17;20.30;94.80
36372;DHT22;22398;51.346;12.372;2023-06-26T04:18:22;20.40;94.30
36372;DHT22;22398;51.346;12.372;2023-06-26T04:23:25;20.60;94.30
36372;DHT22;22398;51.346;12.372;2023-06-26T04:28:28;20.70;93.90
36372;DHT22;22398;51.346;12.372;2023-06-26T04:33:33;20.80;93.70
36372;DHT22;22398;51.346;12.372;2023-06-26T04:38:40;20.90;93.40
36372;DHT22;22398;51.346;12.372;2023-06-26T04:43:43;21.00;93.10
36372;DHT22;22398;51.346;12.372;2023-06-26T04:48:48;21.00;92.80
36372;DHT22;22398;51.346;12.372;2023-06-26T04:53:52;21.10;92.70
36372;DHT22;22398;51.346;12.372;2023-06-26T04:58:55;21.20;92.60
36372;DHT22;22398;51.346;12.372;2023-06-26T05:04:00;21.50;93.20
36372;DHT22;22398;51.346;12.372;2023-06-26T05:09:04;24.60;91.40
36372;DHT22;22398;51.346;12.372;2023-06-26T05:14:08;27.40;81.70
36372;DHT22;22398;51.346;12.372;2023-06-26T05:19:12;29.00;73.70
36372;DHT22;22398;51.346;12.372;2023-06-26T05:24:16;29.90;68.70
36372;DHT22;22398;51.346;12.372;2023-06-26T05:29:19;29.60;64.70
36372;DHT22;22398;51.346;12.372;2023-06-26T05:34:24;27.20;65.60
36372;DHT22;22398;51.346;12.372;2023-06-26T05:39:30;25.40;68.30
36372;DHT22;22398;51.346;12.372;2023-06-26T05:44:34;24.30;70.60
36372;DHT22;22398;51.346;12.372;2023-06-26T05:49:39;23.70;72.50
36372;DHT22;22398;51.346;12.372;2023-06-26T05:54:43;23.50;74.20
36372;DHT22;22398;51.346;12.372;2023-06-26T05:59:46;23.40;75.20
36372;DHT22;22398;51.346;12.372;2023-06-26T06:04:51;23.40;75.90
36372;DHT22;22398;51.346;12.372;2023-06-26T06:09:55;23.40;76.10
36372;DHT22;22398;51.346;12.372;2023-06-26T06:14:58;23.90;76.50
36372;DHT22;22398;51.346;12.372;2023-06-26T06:20:03;23.60;76.40
36372;DHT22;22398;51.346;12.372;2023-06-26T06:25:08;23.60;76.70
36372;DHT22;22398;51.346;12.372;2023-06-26T06:30:11;23.80;77.00
36372;DHT22;22398;51.346;12.372;2023-06-26T06:35:16;24.00;76.50
36372;DHT22;22398;51.346;12.372;2023-06-26T06:40:20;24.00;76.00
36372;DHT22;22398;51.346;12.372;2023-06-26T06:45:24;24.20;75.90
36372;DHT22;22398;51.346;12.372;2023-06-26T06:50:29;24.30;75.60
36372;DHT22;22398;51.346;12.372;2023-06-26T06:55:32;24.40;75.40
36372;DHT22;22398;51.346;12.372;2023-06-26T07:00:36;24.40;75.10
36372;DHT22;22398;51.346;12.372;2023-06-26T07:05:41;24.50;75.00
36372;DHT22;22398;51.346;12.372;2023-06-26T07:10:45;24.60;74.90
36372;DHT22;22398;51.346;12.372;2023-06-26T07:15:48;24.80;74.60
36372;DHT22;22398;51.346;12.372;2023-06-26T07:20:53;24.90;74.30
36372;DHT22;22398;51.346;12.372;2023-06-26T07:25:57;25.00;74.30
36372;DHT22;22398;51.346;12.372;2023-06-26T07:31:00;25.20;74.10
36372;DHT22;22398;51.346;12.372;2023-06-26T07:36:05;25.40;73.80
36372;DHT22;22398;51.346;12.372;2023-06-26T07:41:08;25.70;73.60
36372;DHT22;22398;51.346;12.372;2023-06-26T07:46:11;25.90;73.20
36372;DHT22;22398;51.346;12.372;2023-06-26T07:51:16;26.30;72.70
36372;DHT22;22398;51.346;12.372;2023-06-26T07:56:19;26.50;71.60
36372;DHT22;22398;51.346;12.372;2023-06-26T08:01:22;26.70;71.30
36372;DHT22;22398;51.346;12.372;2023-06-26T08:06:26;27.10;70.90
36372;DHT22;22398;51.346;12.372;2023-06-26T08:11:29;27.40;70.80
36372;DHT22;22398;51.346;12.372;2023-06-26T08:16:32;27.70;69.90
36372;DHT22;22398;51.346;12.372;2023-06-26T08:21:37;28.00;69.20
36372;DHT22;22398;51.346;12.372;2023-06-26T08:26:40;28.00;68.40
36372;DHT22;22398;51.346;12.372;2023-06-26T08:31:43;28.10;67.80
36372;DHT22;22398;51.346;12.372;2023-06-26T08:36:48;28.40;67.40
36372;DHT22;22398;51.346;12.372;2023-06-26T08:41:52;28.60;67.00
36372;DHT22;22398;51.346;12.372;2023-06-26T08:46:55;28.80;66.90
36372;DHT22;22398;51.346;12.372;2023-06-26T08:52:02;28.90;66.00
36372;DHT22;22398;51.346;12.372;2023-06-26T08:57:05;29.20;65.40
36372;DHT22;22398;51.346;12.372;2023-06-26T09:02:10;29.60;65.10
36372;DHT22;22398;51.346;12.372;2023-06-26T09:07:14;30.00;64.30
36372;DHT22;22398;51.346;12.372;2023-06-26T09:12:20;30.00;62.60
36372;DHT22;22398;51.346;12.372;2023-06-26T09:17:24;29.80;61.90
36372;DHT22;22398;51.346;12.372;2023-06-26T09:22:33;29.60;60.10
36372;DHT22;22398;51.346;12.372;2023-06-26T09:27:36;29.50;60.00
36372;DHT22;22398;51.346;12.372;2023-06-26T09:32:39;29.60;59.90
36372;DHT22;22398;51.346;12.372;2023-06-26T09:37:44;29.90;59.80
36372;DHT22;22398;51.346;12.372;2023-06-26T09:42:47;30.30;59.60
36372;DHT22;22398;51.346;12.372;2023-06-26T09:47:51;30.40;58.40
36372;DHT22;22398;51.346;12.372;2023-06-26T09:52:56;30.20;57.90
36372;DHT22;22398;51.346;12.372;2023-06-26T09:58:00;30.40;57.70
36372;DHT22;22398;51.346;12.372;2023-06-26T10:03:05;30.50;57.60
36372;DHT22;22398;51.346;12.372;2023-06-26T10:08:11;31.00;57.30
36372;DHT22;22398;51.346;12.372;2023-06-26T10:13:31;31.30;56.60
36372;DHT22;22398;51.346;12.372;2023-06-26T10:18:38;31.40;56.10
36372;DHT22;22398;51.346;12.372;2023-06-26T10:23:43;31.40;55.60
36372;DHT22;22398;51.346;12.372;2023-06-26T10:28:47;31.40;55.20
36372;DHT22;22398;51.346;12.372;2023-06-26T10:33:54;31.50;54.80
36372;DHT22;22398;51.346;12.372;2023-06-26T10:39:04;31.70;54.20
36372;DHT22;22398;51.346;12.372;2023-06-26T10:44:08;31.60;53.10
36372;DHT22;22398;51.346;12.372;2023-06-26T10:49:12;32.00;53.20
36372;DHT22;22398;51.346;12.372;2023-06-26T10:54:17;31.50;52.00
36372;DHT22;22398;51.346;12.372;2023-06-26T10:59:22;31.10;52.10
36372;DHT22;22398;51.346;12.372;2023-06-26T11:04:38;31.60;52.50
36372;DHT22;22398;51.346;12.372;2023-06-26T11:09:54;32.20;51.50
36372;DHT22;22398;51.346;12.372;2023-06-26T11:14:58;32.40;51.00
36372;DHT22;22398;51.346;12.372;2023-06-26T11:20:01;32.20;50.50
36372;DHT22;22398;51.346;12.372;2023-06-26T11:25:10;32.00;50.30
36372;DHT22;22398;51.346;12.372;2023-06-26T11:30:22;32.00;50.30
36372;DHT22;22398;51.346;12.372;2023-06-26T11:35:25;32.00;49.90
36372;DHT22;22398;51.346;12.372;2023-06-26T11:40:34;31.80;49.20
36372;DHT22;22398;51.346;12.372;2023-06-26T11:45:38;31.60;49.30
36372;DHT22;22398;51.346;12.372;2023-06-26T11:50:43;31.50;49.60
36372;DHT22;22398;51.346;12.372;2023-06-26T11:55:49;31.90;50.10
36372;DHT22;22398;51.346;12.372;2023-06-26T12:00:52;32.40;50.10
36372;DHT22;22398;51.346;12.372;2023-06-26T12:05:55;33.00;49.20
36372;DHT22;22398;51.346;12.372;2023-06-26T12:11:00;33.40;48.90
36372;DHT22;22398;51.346;12.372;2023-06-26T12:16:03;33.60;48.80
36372;DHT22;22398;51.346;12.372;2023-06-26T12:21:07;33.80;48.30
36372;DHT22;22398;51.346;12.372;2023-06-26T12:26:18;33.60;48.40
36372;DHT22;22398;51.346;12.372;2023-06-26T12:31:22;32.90;47.60
36372;DHT22;22398;51.346;12.372;2023-06-26T12:36:25;32.70;48.20
36372;DHT22;22398;51.346;12.372;2023-06-26T12:41:30;32.50;48.20
36372;DHT22;22398;51.346;12.372;2023-06-26T12:46:33;32.80;48.50
36372;DHT22;22398;51.346;12.372;2023-06-26T12:51:38;32.50;48.00
36372;DHT22;22398;51.346;12.372;2023-06-26T12:56:43;32.60;48.10
36372;DHT22;22398;51.346;12.372;2023-06-26T13:01:46;32.90;47.90
36372;DHT22;22398;51.346;12.372;2023-06-26T13:06:50;33.00;47.70
36372;DHT22;22398;51.346;12.372;2023-06-26T13:11:55;33.30;47.60
36372;DHT22;22398;51.346;12.372;2023-06-26T13:16:58;33.90;47.30
36372;DHT22;22398;51.346;12.372;2023-06-26T13:22:02;34.50;46.90
36372;DHT22;22398;51.346;12.372;2023-06-26T13:27:06;34.70;46.30
36372;DHT22;22398;51.346;12.372;2023-06-26T13:32:10;34.80;45.80
36372;DHT22;22398;51.346;12.372;2023-06-26T13:37:13;34.70;45.30
36372;DHT22;22398;51.346;12.372;2023-06-26T13:42:18;34.60;45.00
36372;DHT22;22398;51.346;12.372;2023-06-26T13:47:22;34.60;44.70
36372;DHT22;22398;51.346;12.372;2023-06-26T13:52:25;34.60;44.60
36372;DHT22;22398;51.346;12.372;2023-06-26T13:57:30;34.30;44.10
36372;DHT22;22398;51.346;12.372;2023-06-26T14:02:34;34.00;44.50
36372;DHT22;22398;51.346;12.372;2023-06-26T14:07:37;33.40;44.70
36372;DHT22;22398;51.346;12.372;2023-06-26T14:12:42;31.80;47.80
36372;DHT22;22398;51.346;12.372;2023-06-26T14:17:45;27.80;59.60
36372;DHT22;22398;51.346;12.372;2023-06-26T14:22:49;23.90;99.90
36372;DHT22;22398;51.346;12.372;2023-06-26T14:27:55;22.20;99.90
36372;DHT22;22398;51.346;12.372;2023-06-26T14:32:58;22.40;99.90
36372;DHT22;22398;51.346;12.372;2023-06-26T14:38:02;22.60;99.90
36372;DHT22;22398;51.346;12.372;2023-06-26T14:43:07;22.70;99.90
36372;DHT22;22398;51.346;12.372;2023-06-26T14:48:11;23.00;99.90
36372;DHT22;22398;51.346;12.372;2023-06-26T14:53:15;23.60;99.90
36372;DHT22;22398;51.346;12.372;2023-06-26T14:58:19;23.80;99.90
36372;DHT22;22398;51.346;12.372;2023-06-26T15:03:23;23.80;99.90
36372;DHT22;22398;51.346;12.372;2023-06-26T15:08:27;23.90;99.90
36372;DHT22;22398;51.346;12.372;2023-06-26T15:13:32;24.10;99.90
36372;DHT22;22398;51.346;12.372;2023-06-26T15:18:35;24.30;99.90
36372;DHT22;22398;51.346;12.372;2023-06-26T15:23:39;24.50;99.90
36372;DHT22;22398;51.346;12.372;2023-06-26T15:28:43;24.40;99.90
36372;DHT22;22398;51.346;12.372;2023-06-26T15:33:47;24.70;99.90
36372;DHT22;22398;51.346;12.372;2023-06-26T15:38:50;24.60;99.90
36372;DHT22;22398;51.346;12.372;2023-06-26T15:43:55;24.50;99.90
36372;DHT22;22398;51.346;12.372;2023-06-26T15:48:59;24.40;99.90
36372;DHT22;22398;51.346;12.372;2023-06-26T15:54:02;24.20;99.90
36372;DHT22;22398;51.346;12.372;2023-06-26T15:59:07;24.20;99.40
36372;DHT22;22398;51.346;12.372;2023-06-26T16:04:11;24.30;98.30
36372;DHT22;22398;51.346;12.372;2023-06-26T16:09:15;24.30;97.10
36372;DHT22;22398;51.346;12.372;2023-06-26T16:14:20;24.30;96.40
36372;DHT22;22398;51.346;12.372;2023-06-26T16:19:23;24.20;95.30
36372;DHT22;22398;51.346;12.372;2023-06-26T16:24:27;24.00;94.80
36372;DHT22;22398;51.346;12.372;2023-06-26T16:29:32;23.80;94.30
36372;DHT22;22398;51.346;12.372;2023-06-26T16:34:36;23.70;94.40
36372;DHT22;22398;51.346;12.372;2023-06-26T16:39:39;23.50;94.40
36372;DHT22;22398;51.346;12.372;2023-06-26T16:44:44;23.70;94.70
36372;DHT22;22398;51.346;12.372;2023-06-26T16:49:47;23.70;94.90
36372;DHT22;22398;51.346;12.372;2023-06-26T16:54:51;23.70;94.60
36372;DHT22;22398;51.346;12.372;2023-06-26T16:59:56;23.70;94.80
36372;DHT22;22398;51.346;12.372;2023-06-26T17:04:59;23.60;94.90
36372;DHT22;22398;51.346;12.372;2023-06-26T17:10:03;23.50;95.10
36372;DHT22;22398;51.346;12.372;2023-06-26T17:15:08;23.70;94.40
36372;DHT22;22398;51.346;12.372;2023-06-26T17:20:12;23.70;94.50
36372;DHT22;22398;51.346;12.372;2023-06-26T17:25:15;23.80;93.90
36372;DHT22;22398;51.346;12.372;2023-06-26T17:30:20;23.80;94.00
36372;DHT22;22398;51.346;12.372;2023-06-26T17:35:25;24.00;93.70
36372;DHT22;22398;51.346;12.372;2023-06-26T17:40:28;24.00;93.80
36372;DHT22;22398;51.346;12.372;2023-06-26T17:45:33;24.50;92.10
36372;DHT22;22398;51.346;12.372;2023-06-26T17:50:39;24.40;92.10
36372;DHT22;22398;51.346;12.372;2023-06-26T17:55:43;24.00;91.40
36372;DHT22;22398;51.346;12.372;2023-06-26T18:00:47;23.90;91.40
36372;DHT22;22398;51.346;12.372;2023-06-26T18:05:51;23.90;90.90
36372;DHT22;22398;51.346;12.372;2023-06-26T18:10:54;23.80;90.90
36372;DHT22;22398;51.346;12.372;2023-06-26T18:16:00;23.70;90.40
36372;DHT22;22398;51.346;12.372;2023-06-26T18:21:04;23.60;90.50
36372;DHT22;22398;51.346;12.372;2023-06-26T18:26:07;23.50;89.70
36372;DHT22;22398;51.346;12.372;2023-06-26T18:31:12;23.40;89.60
36372;DHT22;22398;51.346;12.372;2023-06-26T18:36:16;23.20;87.10
36372;DHT22;22398;51.346;12.372;2023-06-26T18:41:19;23.10;87.20
36372;DHT22;22398;51.346;12.372;2023-06-26T18:46:24;22.90;86.20
36372;DHT22;22398;51.346;12.372;2023-06-26T18:51:30;22.90;86.50
36372;DHT22;22398;51.346;12.372;2023-06-26T18:56:33;22.60;86.10
36372;DHT22;22398;51.346;12.372;2023-06-26T19:01:38;22.60;86.40
36372;DHT22;22398;51.346;12.372;2023-06-26T19:06:41;22.40;86.10
36372;DHT22;22398;51.346;12.372;2023-06-26T19:11:45;22.30;86.40
36372;DHT22;22398;51.346;12.372;2023-06-26T19:16:50;22.10;86.10
36372;DHT22;22398;51.346;12.372;2023-06-26T19:21:54;22.10;86.60
36372;DHT22;22398;51.346;12.372;2023-06-26T19:26:57;21.90;86.60
36372;DHT22;22398;51.346;12.372;2023-06-26T19:32:02;21.90;87.00
36372;DHT22;22398;51.346;12.372;2023-06-26T19:37:06;21.70;87.10
36372;DHT22;22398;51.346;12.372;2023-06-26T19:42:10;21.70;87.90
36372;DHT22;22398;51.346;12.372;2023-06-26T19:47:14;21.60;88.30
36372;DHT22;22398;51.346;12.372;2023-06-26T19:52:18;21.50;88.90
36372;DHT22;22398;51.346;12.372;2023-06-26T19:57:21;21.40;89.30
36372;DHT22;22398;51.346;12.372;2023-06-26T20:02:27;21.30;89.90
36372;DHT22;22398;51.346;12.372;2023-06-26T20:07:30;21.20;90.00
36372;DHT22;22398;51.346;12.372;2023-06-26T20:12:34;21.20;90.10
36372;DHT22;22398;51.346;12.372;2023-06-26T20:17:39;21.10;90.10
36372;DHT22;22398;51.346;12.372;2023-06-26T20:22:43;21.10;90.20
36372;DHT22;22398;51.346;12.372;2023-06-26T20:27:46;21.00;89.70
36372;DHT22;22398;51.346;12.372;2023-06-26T20:32:53;21.00;90.00
36372;DHT22;22398;51.346;12.372;2023-06-26T20:37:57;21.00;89.50
36372;DHT22;22398;51.346;12.372;2023-06-26T20:43:00;21.00;88.50
36372;DHT22;22398;51.346;12.372;2023-06-26T20:48:05;21.00;87.90
36372;DHT22;22398;51.346;12.372;2023-06-26T20:53:09;20.90;86.80
36372;DHT22;22398;51.346;12.372;2023-06-26T20:58:13;20.90;86.40
36372;DHT22;22398;51.346;12.372;2023-06-26T21:03:17;20.80;86.70
36372;DHT22;22398;51.346;12.372;2023-06-26T21:08:21;20.70;86.20
36372;DHT22;22398;51.346;12.372;2023-06-26T21:13:24;20.70;86.30
36372;DHT22;22398;51.346;12.372;2023-06-26T21:18:29;20.60;86.30
36372;DHT22;22398;51.346;12.372;2023-06-26T21:23:32;20.50;86.50
36372;DHT22;22398;51.346;12.372;2023-06-26T21:28:36;20.50;86.70
36372;DHT22;22398;51.346;12.372;2023-06-26T21:33:41;20.40;86.90
36372;DHT22;22398;51.346;12.372;2023-06-26T21:38:44;20.40;86.90
36372;DHT22;22398;51.346;12.372;2023-06-26T21:43:48;20.30;86.80
36372;DHT22;22398;51.346;12.372;2023-06-26T21:48:53;20.30;87.00
36372;DHT22;22398;51.346;12.372;2023-06-26T21:53:56;20.20;87.20
36372;DHT22;22398;51.346;12.372;2023-06-26T21:59:00;20.10;87.50
36372;DHT22;22398;51.346;12.372;2023-06-26T22:04:05;20.00;87.90
36372;DHT22;22398;51.346;12.372;2023-06-26T22:09:08;20.00;88.50
36372;DHT22;22398;51.346;12.372;2023-06-26T22:14:14;19.90;89.00
36372;DHT22;22398;51.346;12.372;2023-06-26T22:19:19;19.80;89.50
36372;DHT22;22398;51.346;12.372;2023-06-26T22:24:22;19.70;90.10
36372;DHT22;22398;51.346;12.372;2023-06-26T22:29:26;19.60;90.30
36372;DHT22;22398;51.346;12.372;2023-06-26T22:34:30;19.50;90.70
36372;DHT22;22398;51.346;12.372;2023-06-26T22:39:34;19.40;91.10
36372;DHT22;22398;51.346;12.372;2023-06-26T22:44:37;19.30;91.50
36372;DHT22;22398;51.346;12.372;2023-06-26T22:49:42;19.30;91.90
36372;DHT22;22398;51.346;12.372;2023-06-26T22:54:50;19.10;92.10
36372;DHT22;22398;51.346;12.372;2023-06-26T22:59:54;19.00;92.60
36372;DHT22;22398;51.346;12.372;2023-06-26T23:04:59;19.00;92.50
36372;DHT22;22398;51.346;12.372;2023-06-26T23:10:02;18.90;92.60
36372;DHT22;22398;51.346;12.372;2023-06-26T23:15:06;18.80;92.70
36372;DHT22;22398;51.346;12.372;2023-06-26T23:20:11;18.80;92.90
36372;DHT22;22398;51.346;12.372;2023-06-26T23:25:15;18.70;93.10
36372;DHT22;22398;51.346;12.372;2023-06-26T23:30:18;18.70;93.40
36372;DHT22;22398;51.346;12.372;2023-06-26T23:35:23;18.60;93.70
36372;DHT22;22398;51.346;12.372;2023-06-26T23:40:26;18.50;93.90
36372;DHT22;22398;51.346;12.372;2023-06-26T23:45:32;18.60;93.90
36372;DHT22;22398;51.346;12.372;2023-06-26T23:50:37;18.60;93.80
36372;DHT22;22398;51.346;12.372;2023-06-26T23:55:40;18.60;93.80
